createdAt,value
2023-03-05T00:01:22.884Z,-1.40
2023-03-05T00:03:52.419Z,-1.40
2023-03-05T00:06:20.791Z,-1.40
2023-03-05T00:08:48.685Z,-1.50
2023-03-05T00:11:19.038Z,-1.50
2023-03-05T00:13:46.252Z,-1.60
2023-03-05T00:16:15.594Z,-1.60
2023-03-05T00:18:42.555Z,-1.70
2023-03-05T00:21:41.518Z,-1.70
2023-03-05T00:24:15.285Z,-1.70
2023-03-05T00:26:45.558Z,-1.70
2023-03-05T00:29:21.763Z,-1.70
2023-03-05T00:31:49.420Z,-1.70
2023-03-05T00:34:20.999Z,-1.70
2023-03-05T00:36:51.050Z,-1.70
2023-03-05T00:39:19.470Z,-1.70
2023-03-05T00:41:47.198Z,-1.80
2023-03-05T00:44:14.300Z,-1.80
2023-03-05T00:46:41.130Z,-1.40
2023-03-05T00:49:08.039Z,-1.90
2023-03-05T00:51:35.130Z,-1.90
2023-03-05T00:54:03.722Z,-1.90
2023-03-05T00:56:30.929Z,-1.90
2023-03-05T00:59:01.245Z,-2.00
2023-03-05T01:01:32.961Z,-2.00
2023-03-05T01:04:01.287Z,-2.10
2023-03-05T01:06:29.080Z,-2.00
2023-03-05T01:08:56.574Z,-2.00
2023-03-05T01:11:23.551Z,-2.10
2023-03-05T01:13:50.490Z,-2.10
2023-03-05T01:16:20.550Z,-2.10
2023-03-05T01:18:47.450Z,-2.10
2023-03-05T01:21:14.591Z,-2.00
2023-03-05T01:23:41.322Z,-2.00
2023-03-05T01:26:08.816Z,-2.00
2023-03-05T01:28:36.690Z,-2.00
2023-03-05T01:31:07.806Z,-2.00
2023-03-05T01:33:34.708Z,-2.00
2023-03-05T01:36:15.008Z,-2.00
2023-03-05T01:38:43.284Z,-2.00
2023-03-05T01:41:11.649Z,-2.10
2023-03-05T01:43:38.957Z,-2.10
2023-03-05T01:46:17.977Z,-2.10
2023-03-05T01:48:49.686Z,-2.10
2023-03-05T01:51:18.355Z,-2.10
2023-03-05T01:53:49.047Z,-2.20
2023-03-05T01:56:16.756Z,-2.20
2023-03-05T01:58:47.278Z,-2.20
2023-03-05T02:01:18.509Z,-2.20
2023-03-05T02:03:46.009Z,-2.20
2023-03-05T02:06:13.330Z,-2.20
2023-03-05T02:08:40.427Z,-2.20
2023-03-05T02:11:09.861Z,-2.10
2023-03-05T02:13:40.954Z,-2.10
2023-03-05T02:16:08.423Z,-2.10
2023-03-05T02:18:35.414Z,-2.10
2023-03-05T02:21:09.052Z,-2.10
2023-03-05T02:23:37.944Z,-2.10
2023-03-05T02:26:10.793Z,-2.10
2023-03-05T02:28:40.485Z,-2.10
2023-03-05T02:31:18.082Z,-2.10
2023-03-05T02:33:45.712Z,-2.10
2023-03-05T02:36:13.374Z,-2.10
2023-03-05T02:38:42.167Z,-2.10
2023-03-05T02:41:12.379Z,-2.10
2023-03-05T02:43:39.718Z,-2.20
2023-03-05T02:46:06.860Z,-2.20
2023-03-05T02:48:33.869Z,-2.20
2023-03-05T02:51:03.207Z,-2.20
2023-03-05T02:53:30.474Z,-0.30
2023-03-05T02:55:57.788Z,-2.30
2023-03-05T02:58:24.947Z,-0.70
2023-03-05T03:00:52.021Z,-2.30
2023-03-05T03:03:19.242Z,-2.30
2023-03-05T03:05:46.335Z,-2.20
2023-03-05T03:08:13.387Z,-2.30
2023-03-05T03:10:40.547Z,-2.30
2023-03-05T03:13:07.730Z,-2.30
2023-03-05T03:15:35.117Z,-2.30
2023-03-05T03:18:07.804Z,-2.30
2023-03-05T03:20:37.061Z,-2.20
2023-03-05T03:23:03.864Z,-2.20
2023-03-05T03:25:34.706Z,-2.20
2023-03-05T03:28:01.935Z,-2.20
2023-03-05T03:30:32.237Z,-1.40
2023-03-05T03:32:59.517Z,-1.00
2023-03-05T03:35:30.485Z,-2.20
2023-03-05T03:37:57.331Z,-2.10
2023-03-05T03:40:24.569Z,-0.90
2023-03-05T03:42:52.662Z,-2.20
2023-03-05T03:45:22.190Z,-2.20
2023-03-05T03:47:50.768Z,-2.20
2023-03-05T03:50:18.799Z,-2.20
2023-03-05T03:52:45.804Z,-2.20
2023-03-05T03:55:12.902Z,-2.20
2023-03-05T03:57:39.870Z,-2.20
2023-03-05T04:00:07.530Z,-2.20
2023-03-05T04:02:34.855Z,-2.20
2023-03-05T04:05:02.080Z,-2.20
2023-03-05T04:07:29.066Z,-2.20
2023-03-05T04:09:56.225Z,-2.20
2023-03-05T04:12:23.337Z,-2.30
2023-03-05T04:14:50.368Z,-2.20
2023-03-05T04:17:17.692Z,-2.30
2023-03-05T04:19:44.672Z,-2.30
2023-03-05T04:22:16.783Z,-2.30
2023-03-05T04:24:44.495Z,-2.30
2023-03-05T04:27:11.692Z,-2.30
2023-03-05T04:29:38.470Z,-2.30
2023-03-05T04:32:09.196Z,-2.30
2023-03-05T04:34:38.047Z,-2.40
2023-03-05T04:37:05.146Z,-0.70
2023-03-05T04:39:32.349Z,-2.40
2023-03-05T04:41:59.243Z,-2.50
2023-03-05T04:44:26.133Z,-2.10
2023-03-05T04:46:53.158Z,-2.50
2023-03-05T04:49:19.994Z,-2.50
2023-03-05T04:51:46.762Z,-2.50
2023-03-05T04:54:13.528Z,-2.50
2023-03-05T04:56:40.221Z,-2.60
2023-03-05T04:59:07.023Z,-2.50
2023-03-05T05:01:35.640Z,-2.50
2023-03-05T05:04:02.435Z,-2.60
2023-03-05T05:06:29.301Z,-2.60
2023-03-05T05:08:56.033Z,-2.60
2023-03-05T05:11:22.917Z,-2.60
2023-03-05T05:13:50.771Z,-2.60
2023-03-05T05:16:17.695Z,-2.50
2023-03-05T05:18:44.646Z,-2.50
2023-03-05T05:21:13.561Z,-2.50
2023-03-05T05:23:40.682Z,-2.50
2023-03-05T05:26:08.559Z,-2.40
2023-03-05T05:28:35.530Z,-2.40
2023-03-05T05:31:07.730Z,-2.40
2023-03-05T05:33:34.538Z,-2.40
2023-03-05T05:36:04.406Z,-2.40
2023-03-05T05:38:31.630Z,-2.40
2023-03-05T05:41:13.844Z,-2.50
2023-03-05T05:43:41.348Z,-2.40
2023-03-05T05:46:11.656Z,-2.40
2023-03-05T05:48:38.561Z,-2.40
2023-03-05T05:51:10.883Z,-2.50
2023-03-05T05:53:38.428Z,-2.50
2023-03-05T05:56:06.737Z,-2.50
2023-03-05T05:58:33.728Z,-2.50
2023-03-05T06:01:00.494Z,-1.70
2023-03-05T06:03:27.241Z,-2.50
2023-03-05T06:05:54.278Z,-2.50
2023-03-05T06:08:21.044Z,-2.50
2023-03-05T06:10:55.171Z,-2.50
2023-03-05T06:13:22.204Z,-2.50
2023-03-05T06:16:00.484Z,-2.40
2023-03-05T06:18:27.691Z,-2.40
2023-03-05T06:20:58.763Z,-2.40
2023-03-05T06:23:26.544Z,-2.30
2023-03-05T06:25:54.603Z,-2.30
2023-03-05T06:28:22.306Z,-2.30
2023-03-05T06:30:49.040Z,-2.40
2023-03-05T06:33:16.033Z,-2.40
2023-03-05T06:35:42.943Z,-0.40
2023-03-05T06:38:09.727Z,-2.40
2023-03-05T06:40:39.476Z,-2.40
2023-03-05T06:43:06.537Z,-2.30
2023-03-05T06:45:33.394Z,-2.30
2023-03-05T06:48:00.485Z,-2.20
2023-03-05T06:50:27.227Z,-2.20
2023-03-05T06:52:53.997Z,-2.10
2023-03-05T06:55:21.664Z,-2.20
2023-03-05T06:57:48.416Z,-2.10
2023-03-05T07:00:15.464Z,0.00
2023-03-05T07:02:42.249Z,-2.10
2023-03-05T07:05:09.339Z,-2.00
2023-03-05T07:07:36.365Z,-2.00
2023-03-05T07:10:07.978Z,-1.90
2023-03-05T07:12:35.407Z,-1.90
2023-03-05T07:15:02.509Z,-1.80
2023-03-05T07:17:29.741Z,-1.80
2023-03-05T07:19:56.626Z,-1.70
2023-03-05T07:22:23.353Z,-1.70
2023-03-05T07:24:50.751Z,-1.70
2023-03-05T07:27:17.551Z,-1.60
2023-03-05T07:29:44.626Z,-1.50
2023-03-05T07:32:11.402Z,-1.40
2023-03-05T07:34:39.423Z,-1.40
2023-03-05T07:37:06.300Z,-1.30
2023-03-05T07:39:33.081Z,-1.30
2023-03-05T07:41:59.960Z,-1.20
2023-03-05T07:44:26.760Z,-1.20
2023-03-05T07:46:53.557Z,-1.20
2023-03-05T07:49:20.276Z,-1.10
2023-03-05T07:51:47.132Z,-1.10
2023-03-05T07:54:13.889Z,-1.10
2023-03-05T07:56:40.894Z,-1.00
2023-03-05T07:59:10.703Z,-1.00
2023-03-05T08:01:37.804Z,0.80
2023-03-05T08:04:06.178Z,-0.90
2023-03-05T08:06:33.629Z,-0.80
2023-03-05T08:09:00.473Z,-0.70
2023-03-05T08:11:28.741Z,-0.60
2023-03-05T08:13:56.354Z,-0.50
2023-03-05T08:16:25.839Z,-0.40
2023-03-05T08:18:56.638Z,-0.30
2023-03-05T08:21:29.587Z,1.40
2023-03-05T08:24:00.559Z,-0.10
2023-03-05T08:26:29.483Z,0.00
2023-03-05T08:28:56.679Z,0.10
2023-03-05T08:31:25.136Z,0.20
2023-03-05T08:33:54.615Z,0.80
2023-03-05T08:36:22.280Z,0.30
2023-03-05T08:38:49.395Z,1.50
2023-03-05T08:41:17.857Z,0.50
2023-03-05T08:43:45.117Z,0.60
2023-03-05T08:46:13.345Z,0.80
2023-03-05T08:48:40.519Z,0.80
2023-03-05T08:51:16.407Z,0.90
2023-03-05T08:53:44.437Z,1.00
2023-03-05T08:56:16.595Z,1.60
2023-03-05T08:58:44.475Z,1.20
2023-03-05T09:01:11.927Z,1.30
2023-03-05T09:03:39.522Z,1.40
2023-03-05T09:06:09.449Z,1.50
2023-03-05T09:08:37.008Z,1.50
2023-03-05T09:11:05.575Z,1.60
2023-03-05T09:13:33.097Z,1.60
2023-03-05T09:16:02.535Z,1.80
2023-03-05T09:18:29.711Z,1.80
2023-03-05T09:20:57.086Z,1.90
2023-03-05T09:23:24.910Z,2.00
2023-03-05T09:25:51.909Z,2.00
2023-03-05T09:28:19.010Z,3.00
2023-03-05T09:30:45.891Z,2.20
2023-03-05T09:33:16.246Z,2.30
2023-03-05T09:35:43.435Z,3.10
2023-03-05T09:38:10.459Z,2.40
2023-03-05T09:40:53.734Z,2.40
2023-03-05T09:43:39.190Z,2.50
2023-03-05T09:46:18.547Z,2.50
2023-03-05T09:48:52.864Z,2.50
2023-03-05T09:51:31.539Z,2.60
2023-03-05T09:54:06.614Z,2.70
2023-03-05T09:56:37.940Z,2.70
2023-03-05T09:59:24.257Z,2.90
2023-03-05T10:01:53.170Z,2.80
2023-03-05T10:04:38.314Z,2.90
2023-03-05T10:07:12.049Z,3.00
2023-03-05T10:09:59.310Z,3.00
2023-03-05T10:12:33.349Z,3.10
2023-03-05T10:15:03.162Z,3.10
2023-03-05T10:18:07.358Z,3.10
2023-03-05T10:20:55.341Z,3.20
2023-03-05T10:23:32.120Z,3.30
2023-03-05T10:26:21.648Z,3.30
2023-03-05T10:28:54.163Z,3.40
2023-03-05T10:31:41.083Z,3.50
2023-03-05T10:34:11.267Z,3.60
2023-03-05T10:36:46.834Z,3.70
2023-03-05T10:39:50.613Z,3.70
2023-03-05T10:42:17.570Z,3.80
2023-03-05T10:44:59.729Z,3.90
2023-03-05T10:47:41.392Z,4.00
2023-03-05T10:50:31.769Z,3.90
2023-03-05T10:53:25.966Z,4.00
2023-03-05T10:55:56.302Z,4.00
2023-03-05T10:58:25.027Z,4.00
2023-03-05T11:01:00.267Z,4.00
2023-03-05T11:03:45.346Z,4.00
2023-03-05T11:06:13.617Z,5.60
2023-03-05T11:08:41.758Z,4.40
2023-03-05T11:11:16.587Z,4.00
2023-03-05T11:13:52.996Z,4.00
2023-03-05T11:16:26.978Z,4.00
2023-03-05T11:19:18.667Z,4.10
2023-03-05T11:21:47.013Z,4.10
2023-03-05T11:24:19.125Z,4.10
2023-03-05T11:26:54.499Z,4.10
2023-03-05T11:29:27.367Z,4.10
2023-03-05T11:31:55.052Z,4.10
2023-03-05T11:34:23.782Z,4.20
2023-03-05T11:36:53.505Z,4.20
2023-03-05T11:39:24.684Z,4.30
2023-03-05T11:41:56.331Z,4.30
2023-03-05T11:44:26.229Z,4.30
2023-03-05T11:47:13.744Z,4.30
2023-03-05T11:49:46.077Z,4.30
2023-03-05T11:52:18.057Z,4.30
2023-03-05T11:55:10.860Z,4.20
2023-03-05T11:58:12.453Z,4.20
2023-03-05T12:00:45.698Z,4.20
2023-03-05T12:03:20.576Z,4.20
2023-03-05T12:06:02.101Z,4.20
2023-03-05T12:08:37.476Z,4.20
2023-03-05T12:11:20.586Z,4.20
2023-03-05T12:14:07.707Z,4.30
2023-03-05T12:16:41.890Z,4.30
2023-03-05T12:19:30.796Z,4.20
2023-03-05T12:21:57.996Z,4.10
2023-03-05T12:24:27.741Z,4.10
2023-03-05T12:27:03.013Z,4.10
2023-03-05T12:29:44.950Z,4.00
2023-03-05T12:32:29.063Z,4.00
2023-03-05T12:34:59.868Z,4.10
2023-03-05T12:37:27.224Z,4.10
2023-03-05T12:40:08.663Z,4.10
2023-03-05T12:42:46.600Z,4.10
2023-03-05T12:45:20.158Z,4.10
2023-03-05T12:48:12.138Z,4.10
2023-03-05T12:50:39.186Z,4.10
2023-03-05T12:53:14.715Z,4.20
2023-03-05T12:55:47.332Z,4.20
2023-03-05T12:58:26.024Z,4.30
2023-03-05T13:00:58.687Z,4.30
2023-03-05T13:03:37.063Z,4.30
2023-03-05T13:06:06.792Z,4.30
2023-03-05T13:08:37.746Z,4.30
2023-03-05T13:11:20.408Z,4.30
2023-03-05T13:13:53.271Z,4.40
2023-03-05T13:16:37.054Z,4.50
2023-03-05T13:19:17.768Z,4.50
2023-03-05T13:21:45.750Z,4.50
2023-03-05T13:24:20.232Z,4.50
2023-03-05T13:26:48.314Z,4.50
2023-03-05T13:29:17.926Z,4.40
2023-03-05T13:31:57.725Z,4.40
2023-03-05T13:34:47.226Z,4.40
2023-03-05T13:37:19.781Z,4.40
2023-03-05T13:40:19.759Z,4.40
2023-03-05T13:42:47.261Z,4.40
2023-03-05T13:45:31.597Z,4.40
2023-03-05T13:48:07.228Z,4.30
2023-03-05T13:50:36.669Z,4.30
2023-03-05T13:53:26.991Z,4.20
2023-03-05T13:56:06.229Z,4.20
2023-03-05T13:58:49.080Z,4.20
2023-03-05T14:01:42.498Z,4.20
2023-03-05T14:04:20.752Z,4.30
2023-03-05T14:07:24.425Z,4.30
2023-03-05T14:09:52.447Z,4.20
2023-03-05T14:12:35.827Z,4.10
2023-03-05T14:15:07.423Z,4.10
2023-03-05T14:17:40.872Z,4.10
2023-03-05T14:20:19.776Z,4.50
2023-03-05T14:22:50.976Z,4.10
2023-03-05T14:25:39.618Z,4.10
2023-03-05T14:28:18.405Z,4.10
2023-03-05T14:30:50.631Z,4.00
2023-03-05T14:33:30.106Z,4.00
2023-03-05T14:36:00.495Z,4.00
2023-03-05T14:38:39.248Z,4.00
2023-03-05T14:41:22.829Z,4.00
2023-03-05T14:43:49.585Z,3.90
2023-03-05T14:46:18.172Z,3.80
2023-03-05T14:48:46.571Z,3.80
2023-03-05T14:51:13.520Z,3.70
2023-03-05T14:53:50.279Z,3.70
2023-03-05T14:56:25.469Z,3.70
2023-03-05T14:58:52.358Z,3.60
2023-03-05T15:01:20.096Z,4.20
2023-03-05T15:03:52.543Z,3.60
2023-03-05T15:06:33.182Z,3.60
2023-03-05T15:09:02.309Z,3.60
2023-03-05T15:11:29.457Z,3.50
2023-03-05T15:13:56.588Z,3.50
2023-03-05T15:16:24.561Z,3.60
2023-03-05T15:18:57.651Z,3.40
2023-03-05T15:21:25.902Z,3.40
2023-03-05T15:23:57.236Z,3.40
2023-03-05T15:26:24.691Z,3.30
2023-03-05T15:31:28.764Z,3.30
2023-03-05T15:33:55.788Z,3.30
2023-03-05T15:36:22.672Z,3.30
2023-03-05T15:38:49.473Z,3.30
2023-03-05T15:41:17.634Z,3.30
2023-03-05T15:43:44.307Z,3.20
2023-03-05T15:46:11.099Z,3.20
2023-03-05T15:48:37.850Z,3.10
2023-03-05T15:51:07.823Z,3.10
2023-03-05T15:53:34.669Z,3.00
2023-03-05T15:56:01.414Z,3.00
2023-03-05T15:58:28.152Z,2.90
2023-03-05T16:00:55.285Z,2.90
2023-03-05T16:03:23.195Z,2.80
2023-03-05T16:05:49.951Z,2.80
2023-03-05T16:08:16.833Z,2.80
2023-03-05T16:10:43.556Z,2.70
2023-03-05T16:13:14.870Z,2.70
2023-03-05T16:15:42.639Z,2.60
2023-03-05T16:18:16.372Z,2.60
2023-03-05T16:20:43.245Z,2.50
2023-03-05T16:23:10.095Z,2.40
2023-03-05T16:25:37.933Z,2.80
2023-03-05T16:28:05.148Z,2.30
2023-03-05T16:30:33.167Z,2.30
2023-03-05T16:33:00.594Z,2.20
2023-03-05T16:35:27.380Z,2.20
2023-03-05T16:37:54.180Z,2.10
2023-03-05T16:40:20.953Z,2.10
2023-03-05T16:42:47.683Z,2.00
2023-03-05T16:45:14.532Z,1.90
2023-03-05T16:47:41.503Z,1.90
2023-03-05T16:50:09.924Z,1.90
2023-03-05T16:52:36.926Z,1.80
2023-03-05T16:55:05.071Z,3.80
2023-03-05T16:57:31.816Z,1.70
2023-03-05T17:00:00.838Z,1.60
2023-03-05T17:02:27.882Z,1.50
2023-03-05T17:04:56.317Z,1.50
2023-03-05T17:07:27.846Z,2.80
2023-03-05T17:09:54.888Z,3.00
2023-03-05T17:12:22.933Z,1.40
2023-03-05T17:14:49.862Z,1.40
2023-03-05T17:17:16.733Z,1.40
2023-03-05T17:19:43.662Z,1.20
2023-03-05T17:22:12.675Z,1.20
2023-03-05T17:24:42.903Z,1.20
2023-03-05T17:27:10.523Z,1.10
2023-03-05T17:29:37.334Z,1.10
2023-03-05T17:32:04.565Z,1.10
2023-03-05T17:34:36.753Z,1.00
2023-03-05T17:37:05.227Z,1.00
2023-03-05T17:39:32.118Z,1.00
2023-03-05T17:41:58.820Z,0.90
2023-03-05T17:44:25.726Z,0.90
2023-03-05T17:46:52.448Z,0.90
2023-03-05T17:49:19.439Z,0.80
2023-03-05T17:51:46.450Z,0.80
2023-03-05T17:54:13.449Z,0.80
2023-03-05T17:56:40.144Z,0.70
2023-03-05T17:59:06.800Z,0.70
2023-03-05T18:01:34.968Z,0.70
2023-03-05T18:04:01.827Z,0.70
2023-03-05T18:06:29.120Z,0.70
2023-03-05T18:08:55.876Z,0.70
2023-03-05T18:11:22.678Z,0.70
2023-03-05T18:13:49.482Z,0.60
2023-03-05T18:16:17.119Z,0.70
2023-03-05T18:18:44.640Z,0.60
2023-03-05T18:21:11.450Z,0.60
2023-03-05T18:23:38.215Z,0.60
2023-03-05T18:26:05.015Z,0.60
2023-03-05T18:28:32.015Z,0.60
2023-03-05T18:30:58.774Z,0.60
2023-03-05T18:33:25.962Z,1.20
2023-03-05T18:35:53.770Z,0.60
2023-03-05T18:38:25.966Z,0.60
2023-03-05T18:40:54.534Z,0.60
2023-03-05T18:43:22.987Z,0.50
2023-03-05T18:45:54.656Z,1.50
2023-03-05T18:48:22.249Z,0.60
2023-03-05T18:50:51.251Z,0.60
2023-03-05T18:53:18.712Z,0.60
2023-03-05T18:55:45.980Z,0.60
2023-03-05T18:58:16.135Z,1.80
2023-03-05T19:00:45.061Z,0.60
2023-03-05T19:03:12.199Z,0.60
2023-03-05T19:05:40.584Z,0.60
2023-03-05T19:08:07.998Z,0.60
2023-03-05T19:10:34.918Z,0.50
2023-03-05T19:13:15.822Z,0.50
2023-03-05T19:15:42.963Z,0.40
2023-03-05T19:18:10.166Z,0.30
2023-03-05T19:20:36.875Z,0.30
2023-03-05T19:23:03.624Z,0.20
2023-03-05T19:25:30.549Z,0.10
2023-03-05T19:27:57.396Z,0.10
2023-03-05T19:30:24.176Z,0.00
2023-03-05T19:32:50.888Z,0.00
2023-03-05T19:35:18.287Z,-0.10
2023-03-05T19:37:45.911Z,-0.10
2023-03-05T19:40:14.371Z,-0.20
2023-03-05T19:42:41.282Z,-0.20
2023-03-05T19:45:08.699Z,-0.30
2023-03-05T19:47:35.473Z,-0.30
2023-03-05T19:50:02.426Z,-0.30
2023-03-05T19:52:29.199Z,-0.40
2023-03-05T19:54:56.217Z,-0.40
2023-03-05T19:57:22.944Z,-0.50
2023-03-05T19:59:53.796Z,-0.60
2023-03-05T20:02:21.897Z,-0.60
2023-03-05T20:04:49.597Z,-0.60
2023-03-05T20:07:17.006Z,-0.70
2023-03-05T20:09:43.790Z,-0.70
2023-03-05T20:12:10.849Z,-0.80
2023-03-05T20:14:37.929Z,-0.90
2023-03-05T20:17:04.663Z,-0.90
2023-03-05T20:19:31.399Z,-1.00
2023-03-05T20:21:58.076Z,-1.00
2023-03-05T20:24:24.794Z,-1.10
2023-03-05T20:26:51.496Z,-1.10
2023-03-05T20:29:18.679Z,-1.10
2023-03-05T20:31:46.683Z,-1.10
2023-03-05T20:34:16.135Z,-1.10
2023-03-05T20:36:42.927Z,-1.10
2023-03-05T20:39:10.082Z,-1.10
2023-03-05T20:41:39.231Z,-1.00
2023-03-05T20:44:06.677Z,-1.00
2023-03-05T20:46:36.553Z,-1.00
2023-03-05T20:49:04.644Z,-1.00
2023-03-05T20:51:37.902Z,-1.00
2023-03-05T20:54:08.087Z,-1.00
2023-03-05T20:56:35.877Z,-1.00
2023-03-05T20:59:06.255Z,-1.00
2023-03-05T21:01:35.010Z,-1.00
2023-03-05T21:04:02.654Z,-0.90
2023-03-05T21:06:30.801Z,-0.90
2023-03-05T21:08:57.672Z,-0.90
2023-03-05T21:11:24.946Z,-0.90
2023-03-05T21:13:52.098Z,-0.90
2023-03-05T21:16:22.539Z,-0.90
2023-03-05T21:18:50.880Z,-0.90
2023-03-05T21:21:18.493Z,-0.80
2023-03-05T21:23:45.358Z,-0.80
2023-03-05T21:26:13.397Z,-0.80
2023-03-05T21:28:40.930Z,-0.80
2023-03-05T21:31:10.698Z,-0.80
2023-03-05T21:33:37.950Z,-0.80
2023-03-05T21:36:05.237Z,-0.80
2023-03-05T21:38:34.201Z,-0.80
2023-03-05T21:41:01.850Z,-0.80
2023-03-05T21:43:31.085Z,-0.80
2023-03-05T21:45:59.626Z,-0.80
2023-03-05T21:48:26.702Z,-0.80
2023-03-05T21:50:54.793Z,-0.80
2023-03-05T21:53:21.795Z,-0.80
2023-03-05T21:56:21.266Z,-0.80
2023-03-05T21:58:48.540Z,-0.80
2023-03-05T22:01:18.355Z,1.20
2023-03-05T22:03:45.736Z,-0.80
2023-03-05T22:06:14.279Z,-0.80
2023-03-05T22:08:41.661Z,-0.60
2023-03-05T22:11:14.754Z,-0.70
2023-03-05T22:13:42.238Z,-0.60
2023-03-05T22:16:11.151Z,-0.70
2023-03-05T22:18:38.263Z,-0.60
2023-03-05T22:21:05.586Z,-0.70
2023-03-05T22:23:36.944Z,-0.60
2023-03-05T22:26:05.081Z,-0.60
2023-03-05T22:28:33.124Z,-0.70
2023-03-05T22:31:00.272Z,-0.70
2023-03-05T22:33:28.225Z,-0.60
2023-03-05T22:35:55.393Z,-0.60
2023-03-05T22:38:22.702Z,-0.60
2023-03-05T22:40:51.051Z,-0.60
2023-03-05T22:43:19.546Z,-0.60
2023-03-05T22:45:46.565Z,-0.70
2023-03-05T22:48:15.142Z,-0.70
2023-03-05T22:50:44.425Z,-0.70
2023-03-05T22:53:12.709Z,-0.70
2023-03-05T22:55:41.670Z,1.10
2023-03-05T22:58:08.826Z,-0.90
2023-03-05T23:00:36.517Z,-1.00
2023-03-05T23:03:03.755Z,-1.00
2023-03-05T23:05:30.759Z,-1.00
2023-03-05T23:07:57.667Z,-1.00
2023-03-05T23:10:28.811Z,-1.00
2023-03-05T23:12:57.870Z,-1.00
2023-03-05T23:15:43.016Z,-1.20
2023-03-05T23:18:09.957Z,-1.40
2023-03-05T23:20:37.641Z,-1.50
2023-03-05T23:23:04.927Z,-1.50
2023-03-05T23:25:33.819Z,-1.50
2023-03-05T23:28:01.771Z,-1.40
2023-03-05T23:30:38.043Z,-1.40
2023-03-05T23:33:13.995Z,-1.40
2023-03-05T23:35:52.860Z,-1.30
2023-03-05T23:38:20.157Z,-1.20
2023-03-05T23:40:49.225Z,-1.20
2023-03-05T23:43:18.203Z,-1.20
2023-03-05T23:45:48.146Z,-1.20
2023-03-05T23:48:17.251Z,-1.40
2023-03-05T23:50:47.710Z,-1.50
2023-03-05T23:53:25.235Z,-1.50
2023-03-05T23:55:52.584Z,-1.60
2023-03-05T23:58:20.665Z,-1.50
